Etusivu
METAR-TAF:

METAR-TAF

Lentoasemat :

Troy, Michigan, Yhdysvallat

Leveyspiiri: 42-32-35N, Pituuspiiri: 083-10-40W, korkeus merenpinnasta: 222 m

Tämänhetkinen sää

Tämä raportti tehtiin 11 minuuttia sitten, kello 03.15 UTC
Tuuli 11 kn lännestä puuskistuen 16 kn:hen
Lämpötila 2°C
Kosteus 80%
Ilmanpaine 1005 hPa
Näkyvyys: 16.1 km
selkeää

METAR: KVLL 100315Z AUTO 28011G16KT 10SM CLR 02/M01 A2968 RMK AO2 T00221011

Aika: 23:26 (03:26 UTC)


TAF: puuttuu

Säähavainnot ja -ennusteet yli 4000 lentoasemalta (METAR- ja TAF-raportit).

Käytössä olevat sääasemat on merkitty karttaan keltaisilla ja punaisilla pisteillä.

Aseta hiiri pisteen päälle nähdäksesi sääaseman nimen.

Klikkaa sitten nähdäksesi säähavainnot ja -ennusteet.

Kartan vaihtaminen: klikkaa mustalla rastilla varustettuja vihreitä pisteitä, niin voit zoomata sisään; viivalla varustettua vihreää pistettä, niin voit zoomata ulos tai vihreitä nuolia, niin pääset viereisille kartoille.


METAR-TAF: